Time;durP1;ratioP1;P1;durP2;ratioP2;P2;SDS_P1;SDS_P2;PMS_P1;PMS_P2;Temp;Humidity;BMP_temperature;BMP_pressure;BME280_temperature;BME280_humidity;BME280_pressure;Samples;Min_cycle;Max_cycle;Signal;HPM_P1;HPM_P2
2021/04/27 00:00:08;;;;;;;3.00;1.30;;;;;;;-146.18;100.00;67994.34;9997859;29;20546;-69
2021/04/27 00:05:07;;;;;;;3.65;1.02;;;;;;;-146.18;100.00;67994.34;10011809;29;20060;-69
2021/04/27 00:10:09;;;;;;;3.63;1.42;;;;;;;-146.18;100.00;67994.34;10009346;29;20068;-68
2021/04/27 00:15:11;;;;;;;4.22;1.48;;;;;;;-146.18;100.00;67994.34;10006978;29;20710;-68
2021/04/27 00:20:08;;;;;;;3.83;1.23;;;;;;;-146.18;100.00;67994.34;10002532;29;20126;-67
2021/04/27 00:25:06;;;;;;;2.83;1.10;;;;;;;-146.18;100.00;67994.34;10015160;29;20052;-68
2021/04/27 00:30:04;;;;;;;4.82;1.13;;;;;;;-146.18;100.00;67994.34;10008668;29;20048;-69
2021/04/27 00:35:01;;;;;;;2.78;1.10;;;;;;;-146.18;100.00;67994.34;10010438;29;20558;-69
2021/04/27 00:39:57;;;;;;;3.28;1.20;;;;;;;-146.18;100.00;67994.34;10006108;29;20459;-69
2021/04/27 00:44:53;;;;;;;3.60;1.25;;;;;;;-146.18;100.00;67994.34;10014385;29;20058;-69
2021/04/27 00:49:49;;;;;;;4.53;1.55;;;;;;;-146.18;100.00;67994.34;9998317;29;20044;-70
2021/04/27 00:54:45;;;;;;;4.70;1.20;;;;;;;-146.18;100.00;67994.34;10003613;29;20095;-69
2021/04/27 00:59:41;;;;;;;4.68;1.40;;;;;;;-146.18;100.00;67994.34;10003660;29;20040;-69
2021/04/27 01:04:37;;;;;;;3.50;1.35;;;;;;;-146.18;100.00;67994.34;10006244;29;20459;-67
2021/04/27 01:09:41;;;;;;;9.85;1.45;;;;;;;-146.18;100.00;67994.34;10002903;29;20081;-69
2021/04/27 01:14:45;;;;;;;5.32;1.10;;;;;;;-146.18;100.00;67994.34;10004154;29;20044;-69
2021/04/27 01:19:50;;;;;;;3.63;1.00;;;;;;;-146.18;100.00;67994.34;10009559;29;20498;-68
2021/04/27 01:24:55;;;;;;;4.45;1.52;;;;;;;-146.18;100.00;67994.34;9999442;29;20044;-67
2021/04/27 01:29:52;;;;;;;5.78;1.40;;;;;;;-146.18;100.00;67994.34;9999059;29;20084;-67
2021/04/27 01:34:48;;;;;;;5.20;1.42;;;;;;;-146.18;100.00;67994.34;10020830;29;20111;-67
2021/04/27 01:39:45;;;;;;;3.55;1.25;;;;;;;-146.18;100.00;67994.34;10003949;29;20052;-67
2021/04/27 01:44:43;;;;;;;3.53;1.73;;;;;;;-146.18;100.00;67994.34;10005640;29;20036;-68
2021/04/27 01:49:42;;;;;;;8.60;1.50;;;;;;;-146.18;100.00;67994.34;9998228;29;20040;-68
2021/04/27 01:54:38;;;;;;;3.72;1.27;;;;;;;-146.18;100.00;67994.34;9988939;29;20051;-68
2021/04/27 01:59:35;;;;;;;4.93;1.80;;;;;;;-146.18;100.00;67994.34;10002582;29;20136;-68
2021/04/27 02:04:31;;;;;;;6.65;1.40;;;;;;;-146.18;100.00;67994.34;10003164;29;20064;-68
2021/04/27 02:09:27;;;;;;;4.40;1.52;;;;;;;-146.18;100.00;67994.34;10003363;29;20055;-69
2021/04/27 02:14:29;;;;;;;6.15;1.58;;;;;;;-146.18;100.00;67994.34;9994088;29;20071;-69
2021/04/27 02:19:28;;;;;;;6.30;1.70;;;;;;;-146.18;100.00;67994.34;10001343;29;20173;-69
2021/04/27 02:24:25;;;;;;;5.32;1.63;;;;;;;-146.18;100.00;67994.34;10004581;29;20040;-68
2021/04/27 02:29:23;;;;;;;4.07;1.48;;;;;;;-146.18;100.00;67994.34;10004447;29;20040;-68
2021/04/27 02:34:21;;;;;;;3.78;1.30;;;;;;;-146.18;100.00;67994.34;10014521;29;20103;-68
2021/04/27 02:39:18;;;;;;;5.70;1.75;;;;;;;-146.18;100.00;67994.34;10014978;29;20543;-68
2021/04/27 02:44:14;;;;;;;3.20;1.30;;;;;;;-146.18;100.00;67994.34;10011494;29;20051;-69
2021/04/27 02:49:11;;;;;;;7.35;1.63;;;;;;;-146.18;100.00;67994.34;9996978;29;20100;-68
2021/04/27 02:54:07;;;;;;;6.28;1.38;;;;;;;-146.18;100.00;67994.34;10013048;29;20055;-67
2021/04/27 02:59:05;;;;;;;3.67;1.33;;;;;;;-146.18;100.00;67994.34;10004970;29;20673;-67
2021/04/27 03:04:02;;;;;;;4.03;1.50;;;;;;;-146.18;100.00;67994.34;10006200;29;20084;-67
2021/04/27 03:08:59;;;;;;;4.45;1.55;;;;;;;-146.18;100.00;67994.34;10001614;29;20103;-67
2021/04/27 03:13:55;;;;;;;4.40;1.80;;;;;;;-146.18;100.00;67994.34;10014036;29;20067;-67
2021/04/27 03:18:58;;;;;;;5.00;1.58;;;;;;;-146.18;100.00;67994.34;10002328;29;20045;-67
2021/04/27 03:23:58;;;;;;;3.88;1.40;;;;;;;-146.18;100.00;67994.34;9993682;29;20062;-68
2021/04/27 03:28:56;;;;;;;9.00;2.38;;;;;;;-146.18;100.00;67994.34;10016647;29;20060;-68
2021/04/27 03:33:53;;;;;;;6.25;2.20;;;;;;;-146.18;100.00;67994.34;10028940;29;20143;-68
2021/04/27 03:38:49;;;;;;;5.63;1.40;;;;;;;-146.18;100.00;67994.34;10001143;29;20395;-68
2021/04/27 03:43:46;;;;;;;5.63;1.75;;;;;;;-146.18;100.00;67994.34;10021294;29;20190;-68
2021/04/27 03:48:42;;;;;;;4.35;1.90;;;;;;;-146.18;100.00;67994.34;10008274;29;20048;-68
2021/04/27 03:53:38;;;;;;;3.30;1.42;;;;;;;-146.18;100.00;67994.34;10013257;29;20072;-68
2021/04/27 03:58:34;;;;;;;4.82;1.67;;;;;;;-146.18;100.00;67994.34;10003871;29;20044;-68
2021/04/27 04:03:30;;;;;;;3.47;1.25;;;;;;;-146.18;100.00;67994.34;10005265;29;20056;-68
2021/04/27 04:08:26;;;;;;;6.53;1.85;;;;;;;-146.18;100.00;67994.34;10016687;29;20047;-68
2021/04/27 04:13:22;;;;;;;5.93;1.60;;;;;;;-146.18;100.00;67994.34;9998546;29;20569;-69
2021/04/27 04:18:21;;;;;;;4.72;1.63;;;;;;;-146.18;100.00;67994.34;10005414;29;20103;-69
2021/04/27 04:23:17;;;;;;;5.03;1.88;;;;;;;-146.18;100.00;67994.34;9989634;29;20195;-69
2021/04/27 04:28:13;;;;;;;4.95;1.90;;;;;;;-146.18;100.00;67994.34;9993337;29;20051;-69
2021/04/27 04:33:09;;;;;;;4.88;1.48;;;;;;;-146.18;100.00;67994.34;9997526;29;20529;-68
2021/04/27 04:38:05;;;;;;;5.72;1.45;;;;;;;-146.18;100.00;67994.34;9994123;29;20044;-67
2021/04/27 04:43:02;;;;;;;6.55;1.40;;;;;;;-146.18;100.00;67994.34;9989446;29;20048;-66
2021/04/27 04:47:58;;;;;;;6.95;1.63;;;;;;;-146.18;100.00;67994.34;10005333;29;20044;-66
2021/04/27 04:52:54;;;;;;;5.35;1.90;;;;;;;-146.18;100.00;67994.34;9981659;29;20074;-66
2021/04/27 04:57:50;;;;;;;7.03;1.67;;;;;;;-146.18;100.00;67994.34;9985430;29;20047;-67
2021/04/27 05:02:46;;;;;;;5.18;1.63;;;;;;;-146.18;100.00;67994.34;9992075;29;20052;-69
2021/04/27 05:07:44;;;;;;;7.00;1.77;;;;;;;-146.18;100.00;67994.34;10000936;29;20091;-66
2021/04/27 05:12:41;;;;;;;7.65;1.70;;;;;;;-146.18;100.00;67994.34;10000864;29;20467;-66
2021/04/27 05:17:37;;;;;;;7.05;3.05;;;;;;;-146.18;100.00;67994.34;9997232;29;20036;-65
2021/04/27 05:22:33;;;;;;;8.80;1.73;;;;;;;-146.18;100.00;67994.34;9994412;29;20131;-66
2021/04/27 05:27:29;;;;;;;4.97;1.85;;;;;;;-146.18;100.00;67994.34;9994621;29;20088;-67
2021/04/27 05:32:25;;;;;;;4.80;1.55;;;;;;;-146.18;100.00;67994.34;9989419;29;20051;-68
2021/04/27 05:37:22;;;;;;;6.07;1.63;;;;;;;-146.18;100.00;67994.34;9987487;29;20048;-68
2021/04/27 05:42:18;;;;;;;6.88;2.00;;;;;;;-146.18;100.00;67994.34;9992650;29;20088;-68
2021/04/27 05:47:14;;;;;;;5.65;1.77;;;;;;;-146.18;100.00;67994.34;9994857;29;20072;-68
2021/04/27 05:52:10;;;;;;;6.35;2.17;;;;;;;-146.18;100.00;67994.34;9993758;29;20044;-68
2021/04/27 05:57:07;;;;;;;5.97;1.67;;;;;;;-146.18;100.00;67994.34;9987079;29;20056;-68
2021/04/27 06:02:04;;;;;;;4.53;1.60;;;;;;;-146.18;100.00;67994.34;9990679;29;20048;-68
2021/04/27 06:07:00;;;;;;;5.88;1.95;;;;;;;-146.18;100.00;67994.34;9989576;29;20052;-68
2021/04/27 06:11:57;;;;;;;6.65;1.88;;;;;;;-146.18;100.00;67994.34;9992448;29;20065;-67
2021/04/27 06:16:53;;;;;;;5.82;1.35;;;;;;;-146.18;100.00;67994.34;9974027;29;20155;-67
2021/04/27 06:21:53;;;;;;;5.55;1.40;;;;;;;-146.18;100.00;67994.34;9986102;29;20052;-69
2021/04/27 06:26:49;;;;;;;3.88;1.50;;;;;;;-146.18;100.00;67994.34;10001030;29;20097;-67
2021/04/27 06:31:45;;;;;;;5.55;1.20;;;;;;;-146.18;100.00;67994.34;9988213;29;20651;-68
2021/04/27 06:36:41;;;;;;;6.22;1.30;;;;;;;-146.18;100.00;67994.34;9994150;29;20070;-67
2021/04/27 06:41:38;;;;;;;3.33;1.13;;;;;;;-146.18;100.00;67994.34;9995008;29;20052;-66
2021/04/27 06:46:34;;;;;;;4.25;1.15;;;;;;;-146.18;100.00;67994.34;9996335;29;20502;-66
2021/04/27 06:51:30;;;;;;;4.65;1.20;;;;;;;-146.18;100.00;67994.34;9995931;29;20048;-66
2021/04/27 06:56:26;;;;;;;4.88;1.30;;;;;;;-146.18;100.00;67994.34;9990980;29;20104;-67
2021/04/27 07:01:22;;;;;;;6.57;2.10;;;;;;;-146.18;100.00;67994.34;10001905;29;20095;-66
2021/04/27 07:06:18;;;;;;;4.95;1.33;;;;;;;-146.18;100.00;67994.34;10003557;29;20422;-66
2021/04/27 07:11:14;;;;;;;4.70;1.10;;;;;;;-146.18;100.00;67994.34;9994476;29;20052;-66
2021/04/27 07:16:10;;;;;;;4.63;1.10;;;;;;;-146.18;100.00;67994.34;9985038;29;20075;-66
2021/04/27 07:21:07;;;;;;;4.75;0.90;;;;;;;-146.18;100.00;67994.34;10001542;29;20075;-67
2021/04/27 07:26:04;;;;;;;4.85;1.15;;;;;;;-146.18;100.00;67994.34;10001116;29;20430;-66
2021/04/27 07:31:00;;;;;;;5.38;1.20;;;;;;;-146.18;100.00;67994.34;9998318;29;20048;-67
2021/04/27 07:35:56;;;;;;;3.65;1.10;;;;;;;-146.18;100.00;67994.34;9996970;29;20048;-67
2021/04/27 07:40:53;;;;;;;3.88;1.05;;;;;;;-146.18;100.00;67994.34;9994889;29;20522;-66
2021/04/27 07:45:50;;;;;;;5.72;1.25;;;;;;;-146.18;100.00;67994.34;9989240;29;20578;-66
2021/04/27 07:50:47;;;;;;;2.88;0.88;;;;;;;-146.18;100.00;67994.34;9996679;29;20554;-66
2021/04/27 07:55:44;;;;;;;6.93;0.90;;;;;;;-146.18;100.00;67994.34;9989943;29;20056;-67
2021/04/27 08:00:41;;;;;;;3.92;1.30;;;;;;;-146.18;100.00;67994.34;9995656;29;20474;-67
2021/04/27 08:05:37;;;;;;;4.28;0.80;;;;;;;-146.18;100.00;67994.34;10004138;29;20515;-66
2021/04/27 08:10:33;;;;;;;3.78;1.02;;;;;;;-146.18;100.00;67994.34;9987797;29;20044;-66
2021/04/27 08:15:30;;;;;;;4.68;1.92;;;;;;;-146.18;100.00;67994.34;10003956;29;20099;-66
2021/04/27 08:20:29;;;;;;;6.72;1.08;;;;;;;-146.18;100.00;67994.34;9998741;29;20139;-66
2021/04/27 08:25:27;;;;;;;8.65;1.40;;;;;;;-146.18;100.00;67994.34;9993898;29;20052;-66
2021/04/27 08:30:24;;;;;;;3.83;0.90;;;;;;;-146.18;100.00;67994.34;9998546;29;20083;-69
2021/04/27 08:35:20;;;;;;;3.25;0.90;;;;;;;-146.18;100.00;67994.34;10002735;29;20051;-68
2021/04/27 08:40:17;;;;;;;5.97;0.85;;;;;;;-146.18;100.00;67994.34;10002948;29;20066;-68
2021/04/27 08:45:14;;;;;;;2.85;0.95;;;;;;;-146.18;100.00;67994.34;10003029;29;20059;-68
2021/04/27 08:50:13;;;;;;;2.25;0.90;;;;;;;-146.18;100.00;67994.34;9998719;29;20418;-68
2021/04/27 08:55:09;;;;;;;2.60;0.80;;;;;;;-146.18;100.00;67994.34;10008651;29;20084;-68
2021/04/27 09:00:10;;;;;;;2.45;0.80;;;;;;;-146.18;100.00;67994.34;9999417;29;20438;-67
2021/04/27 09:05:26;;;;;;;3.35;0.90;;;;;;;-146.18;100.00;67994.34;10000255;29;20056;-68
2021/04/27 09:10:23;;;;;;;4.18;0.90;;;;;;;-146.18;100.00;67994.34;9997102;29;20531;-67
2021/04/27 09:15:28;;;;;;;5.43;0.80;;;;;;;-146.18;100.00;67994.34;9999601;29;20122;-67
2021/04/27 09:20:24;;;;;;;3.95;1.20;;;;;;;-146.18;100.00;67994.34;9999009;29;20048;-66
2021/04/27 09:25:23;;;;;;;2.85;0.65;;;;;;;-146.18;100.00;67994.34;9997499;29;20060;-67
2021/04/27 09:30:26;;;;;;;3.00;1.13;;;;;;;-146.18;100.00;67994.34;9998842;29;20083;-67
2021/04/27 09:35:32;;;;;;;3.13;1.00;;;;;;;-146.18;100.00;67994.34;9998475;29;20060;-66
2021/04/27 09:40:28;;;;;;;4.97;1.33;;;;;;;-146.18;100.00;67994.34;9978942;29;20049;-67
2021/04/27 09:45:24;;;;;;;2.05;0.65;;;;;;;-146.18;100.00;67994.34;9995509;29;20043;-67
2021/04/27 09:50:26;;;;;;;3.40;0.75;;;;;;;-146.18;100.00;67994.34;9995177;29;20078;-67
2021/04/27 09:55:25;;;;;;;2.92;0.77;;;;;;;-146.18;100.00;67994.34;9965954;29;20073;-67
2021/04/27 10:00:34;;;;;;;3.42;0.70;;;;;;;-146.18;100.00;67994.34;9993112;29;20059;-67
2021/04/27 10:05:33;;;;;;;2.25;0.80;;;;;;;-146.18;100.00;67994.34;9997306;29;20605;-67
2021/04/27 10:10:32;;;;;;;4.88;0.82;;;;;;;-146.18;100.00;67994.34;9996127;29;20053;-67
2021/04/27 10:15:29;;;;;;;2.90;0.70;;;;;;;-146.18;100.00;67994.34;9988368;29;20051;-67
2021/04/27 10:20:26;;;;;;;2.72;0.80;;;;;;;-146.18;100.00;67994.34;9993073;29;20075;-67
2021/04/27 10:25:25;;;;;;;4.60;0.73;;;;;;;-146.18;100.00;67994.34;9990210;29;20048;-68
2021/04/27 10:30:22;;;;;;;2.03;0.60;;;;;;;-146.18;100.00;67994.34;9987476;29;20051;-67
2021/04/27 10:35:19;;;;;;;2.10;0.57;;;;;;;-146.18;100.00;67994.34;9981159;29;20056;-68
2021/04/27 10:40:44;;;;;;;3.65;1.05;;;;;;;-146.18;100.00;67994.34;9980984;29;20044;-65
2021/04/27 10:45:40;;;;;;;2.40;0.57;;;;;;;-146.18;100.00;67994.34;9972975;29;20605;-67
2021/04/27 10:50:36;;;;;;;1.85;0.50;;;;;;;-146.18;100.00;67994.34;9965130;29;20067;-68
2021/04/27 10:55:33;;;;;;;2.92;0.80;;;;;;;-146.18;100.00;67994.34;9973693;29;20056;-67
2021/04/27 11:00:43;;;;;;;2.13;0.73;;;;;;;-146.18;100.00;67994.34;9981535;29;20510;-68
2021/04/27 11:06:08;;;;;;;2.88;0.85;;;;;;;-146.18;100.00;67994.34;9983967;29;20136;-67
2021/04/27 11:11:16;;;;;;;4.18;0.60;;;;;;;-146.18;100.00;67994.34;9989711;29;20063;-68
2021/04/27 11:16:30;;;;;;;3.38;0.88;;;;;;;-146.18;100.00;67994.34;9983154;29;20638;-68
2021/04/27 11:21:32;;;;;;;2.92;0.82;;;;;;;-146.18;100.00;67994.34;9980092;29;20044;-67
2021/04/27 11:26:31;;;;;;;1.20;0.50;;;;;;;-146.18;100.00;67994.34;9990280;29;20052;-68
2021/04/27 11:31:27;;;;;;;2.63;0.65;;;;;;;-146.18;100.00;67994.34;9989898;29;20048;-67
2021/04/27 11:36:53;;;;;;;4.03;1.02;;;;;;;-146.18;100.00;67994.34;9983251;29;20044;-68
2021/04/27 11:41:55;;;;;;;2.50;0.82;;;;;;;-146.18;100.00;67994.34;9971835;29;20079;-68
2021/04/27 11:46:56;;;;;;;4.03;1.00;;;;;;;-146.18;100.00;67994.34;9993138;29;20514;-67
2021/04/27 11:51:53;;;;;;;2.83;0.73;;;;;;;-146.18;100.00;67994.34;9995040;29;20173;-67
2021/04/27 11:56:49;;;;;;;2.50;0.75;;;;;;;-146.18;100.00;67994.34;9987929;29;20044;-67
2021/04/27 12:01:46;;;;;;;1.85;0.50;;;;;;;-146.18;100.00;67994.34;9989621;29;20395;-66
2021/04/27 12:06:57;;;;;;;3.80;0.77;;;;;;;-146.18;100.00;67994.34;9992972;29;20138;-68
2021/04/27 12:12:08;;;;;;;2.50;0.43;;;;;;;-146.18;100.00;67994.34;9993864;29;20062;-68
2021/04/27 12:17:04;;;;;;;1.98;0.70;;;;;;;-146.18;100.00;67994.34;9995566;29;20112;-67
2021/04/27 12:22:04;;;;;;;1.80;0.60;;;;;;;-146.18;100.00;67994.34;9973306;29;20497;-68
2021/04/27 12:27:01;;;;;;;2.35;0.60;;;;;;;-146.18;100.00;67994.34;9991752;29;20168;-68
2021/04/27 12:32:10;;;;;;;3.22;0.70;;;;;;;-146.18;100.00;67994.34;9995414;29;20058;-67
2021/04/27 12:37:14;;;;;;;3.85;0.68;;;;;;;-146.18;100.00;67994.34;9991660;29;20078;-66
2021/04/27 12:42:22;;;;;;;3.17;0.60;;;;;;;-146.18;100.00;67994.34;9988010;29;20040;-65
2021/04/27 12:47:28;;;;;;;1.27;0.50;;;;;;;-146.18;100.00;67994.34;9985970;29;20512;-65
2021/04/27 12:52:26;;;;;;;2.33;0.65;;;;;;;-146.18;100.00;67994.34;9982042;29;20050;-67
2021/04/27 12:57:23;;;;;;;1.65;0.50;;;;;;;-146.18;100.00;67994.34;9975097;29;20052;-67
2021/04/27 13:02:19;;;;;;;2.08;0.60;;;;;;;-146.18;100.00;67994.34;9978775;29;20095;-67
2021/04/27 13:07:27;;;;;;;2.28;0.60;;;;;;;-146.18;100.00;67994.34;9975589;29;20130;-67
2021/04/27 13:12:24;;;;;;;3.15;0.70;;;;;;;-146.18;100.00;67994.34;9971452;29;20044;-67
2021/04/27 13:17:23;;;;;;;2.53;0.60;;;;;;;-146.18;100.00;67994.34;9977513;29;20100;-68
2021/04/27 13:22:27;;;;;;;9.35;1.17;;;;;;;-146.18;100.00;67994.34;9972499;29;20131;-67
2021/04/27 13:27:29;;;;;;;2.85;0.60;;;;;;;-146.18;100.00;67994.34;9986588;29;20095;-66
2021/04/27 13:32:25;;;;;;;2.78;0.52;;;;;;;-146.18;100.00;67994.34;9991659;29;20056;-67
2021/04/27 13:37:22;;;;;;;2.15;0.50;;;;;;;-146.18;100.00;67994.34;9993215;29;20052;-67
2021/04/27 13:42:17;;;;;;;3.50;0.68;;;;;;;-146.18;100.00;67994.34;9988707;29;20431;-66
2021/04/27 13:47:13;;;;;;;3.97;0.68;;;;;;;-146.18;100.00;67994.34;9990895;29;20048;-67
2021/04/27 13:52:10;;;;;;;1.83;0.57;;;;;;;-146.18;100.00;67994.34;9992643;29;20447;-67
2021/04/27 13:57:06;;;;;;;2.90;1.00;;;;;;;-146.18;100.00;67994.34;9992023;29;20056;-67
2021/04/27 14:02:02;;;;;;;2.67;0.60;;;;;;;-146.18;100.00;67994.34;9991085;29;20063;-65
2021/04/27 14:06:58;;;;;;;3.08;0.82;;;;;;;-146.18;100.00;67994.34;9990857;29;20770;-66
2021/04/27 14:11:54;;;;;;;5.53;0.93;;;;;;;-146.18;100.00;67994.34;9991146;29;20047;-67
2021/04/27 14:16:50;;;;;;;2.70;0.68;;;;;;;-146.18;100.00;67994.34;9986887;29;20052;-66
2021/04/27 14:21:46;;;;;;;1.95;0.60;;;;;;;-146.18;100.00;67994.34;9976307;29;20503;-67
2021/04/27 14:26:43;;;;;;;3.65;0.70;;;;;;;-146.18;100.00;67994.34;9969725;29;20111;-67
2021/04/27 14:31:39;;;;;;;5.68;0.90;;;;;;;-146.18;100.00;67994.34;9972699;29;20104;-66
2021/04/27 14:36:35;;;;;;;3.55;0.52;;;;;;;-146.18;100.00;67994.34;9985393;29;20051;-67
2021/04/27 14:41:32;;;;;;;3.72;0.75;;;;;;;-146.18;100.00;67994.34;9991448;29;20063;-67
2021/04/27 14:46:31;;;;;;;2.63;0.70;;;;;;;-146.18;100.00;67994.34;9988604;29;20578;-65
2021/04/27 14:51:27;;;;;;;1.88;0.55;;;;;;;-146.18;100.00;67994.34;9979965;29;20076;-67
2021/04/27 14:56:23;;;;;;;2.25;0.52;;;;;;;-146.18;100.00;67994.34;9985441;29;20044;-68
2021/04/27 15:01:21;;;;;;;1.30;0.50;;;;;;;-146.18;100.00;67994.34;9986806;29;20100;-69
2021/04/27 15:06:17;;;;;;;2.88;0.50;;;;;;;-146.18;100.00;67994.34;9983400;29;20067;-67
2021/04/27 15:11:13;;;;;;;3.47;1.00;;;;;;;-146.18;100.00;67994.34;9980714;29;20056;-66
2021/04/27 15:16:09;;;;;;;2.13;0.70;;;;;;;-146.18;100.00;67994.34;9981855;29;20051;-66
2021/04/27 15:21:05;;;;;;;3.50;0.40;;;;;;;-146.18;100.00;67994.34;9982960;29;20044;-67
2021/04/27 15:26:01;;;;;;;3.55;0.85;;;;;;;-146.18;100.00;67994.34;9991551;29;20044;-68
2021/04/27 15:30:57;;;;;;;2.83;0.57;;;;;;;-146.18;100.00;67994.34;9967224;29;20060;-68
2021/04/27 15:35:53;;;;;;;8.05;0.47;;;;;;;-146.18;100.00;67994.34;9979620;29;20541;-67
2021/04/27 15:40:49;;;;;;;1.25;0.40;;;;;;;-146.18;100.00;67994.34;9986965;29;20503;-68
2021/04/27 15:45:45;;;;;;;2.00;0.65;;;;;;;-146.18;100.00;67994.34;9979311;29;20040;-68
2021/04/27 15:50:41;;;;;;;4.60;0.63;;;;;;;-146.18;100.00;67994.34;9990764;29;20127;-67
2021/04/27 15:55:37;;;;;;;4.38;0.73;;;;;;;-146.18;100.00;67994.34;9979678;29;20104;-68
2021/04/27 16:00:34;;;;;;;1.20;0.52;;;;;;;-146.18;100.00;67994.34;9978475;29;20044;-68
2021/04/27 16:05:30;;;;;;;3.15;0.50;;;;;;;-146.18;100.00;67994.34;9992354;29;20100;-67
2021/04/27 16:10:26;;;;;;;1.38;0.52;;;;;;;-146.18;100.00;67994.34;9992779;29;20047;-66
2021/04/27 16:15:23;;;;;;;2.40;0.65;;;;;;;-146.18;100.00;67994.34;9990253;29;20100;-67
2021/04/27 16:20:20;;;;;;;1.70;0.45;;;;;;;-146.18;100.00;67994.34;9993507;29;20048;-66
2021/04/27 16:25:16;;;;;;;2.22;0.40;;;;;;;-146.18;100.00;67994.34;9998928;29;20539;-68
2021/04/27 16:30:13;;;;;;;1.35;0.38;;;;;;;-146.18;100.00;67994.34;9985798;29;20103;-67
2021/04/27 16:35:10;;;;;;;1.90;0.52;;;;;;;-146.18;100.00;67994.34;9990751;29;20471;-67
2021/04/27 16:40:10;;;;;;;2.38;0.57;;;;;;;-146.18;100.00;67994.34;9992708;29;20048;-67
2021/04/27 16:45:08;;;;;;;9.65;0.73;;;;;;;-146.18;100.00;67994.34;9996120;29;20108;-66
2021/04/27 16:50:07;;;;;;;4.25;0.60;;;;;;;-146.18;100.00;67994.34;9991733;29;20060;-67
2021/04/27 16:55:04;;;;;;;2.80;0.60;;;;;;;-146.18;100.00;67994.34;9994198;29;20067;-67
2021/04/27 17:00:02;;;;;;;3.72;0.55;;;;;;;-146.18;100.00;67994.34;9989586;29;20063;-67
2021/04/27 17:04:58;;;;;;;2.25;0.73;;;;;;;-146.18;100.00;67994.34;9988057;29;20052;-66
2021/04/27 17:09:54;;;;;;;3.75;0.73;;;;;;;-146.18;100.00;67994.34;9978452;29;20056;-68
2021/04/27 17:14:50;;;;;;;5.18;1.30;;;;;;;-146.18;100.00;67994.34;9986147;29;20048;-67
2021/04/27 17:19:46;;;;;;;3.45;1.40;;;;;;;-146.18;100.00;67994.34;9975680;29;20422;-67
2021/04/27 17:24:43;;;;;;;5.38;1.50;;;;;;;-146.18;100.00;67994.34;9958066;29;20135;-67
2021/04/27 17:29:39;;;;;;;4.60;1.75;;;;;;;-146.18;100.00;67994.34;9977427;29;20676;-67
2021/04/27 17:34:35;;;;;;;5.80;1.40;;;;;;;-146.18;100.00;67994.34;9978164;29;20106;-68
2021/04/27 17:39:32;;;;;;;5.50;1.90;;;;;;;-146.18;100.00;67994.34;9981252;29;20044;-67
2021/04/27 17:44:28;;;;;;;6.05;1.85;;;;;;;-146.18;100.00;67994.34;9992129;29;20079;-67
2021/04/27 17:49:24;;;;;;;4.00;1.55;;;;;;;-146.18;100.00;67994.34;9986737;29;20063;-67
2021/04/27 17:54:20;;;;;;;4.55;1.70;;;;;;;-146.18;100.00;67994.34;9974185;29;20057;-68
2021/04/27 17:59:16;;;;;;;5.40;1.73;;;;;;;-146.18;100.00;67994.34;9988732;29;20048;-66
2021/04/27 18:04:12;;;;;;;4.93;2.10;;;;;;;-146.18;100.00;67994.34;9988779;29;20101;-63
2021/04/27 18:09:08;;;;;;;4.30;1.70;;;;;;;-146.18;100.00;67994.34;9983862;29;20124;-66
2021/04/27 18:14:04;;;;;;;3.13;1.30;;;;;;;-146.18;100.00;67994.34;9989982;29;20519;-68
2021/04/27 18:19:00;;;;;;;8.75;2.05;;;;;;;-146.18;100.00;67994.34;9980221;29;20123;-67
2021/04/27 18:23:57;;;;;;;2.90;1.20;;;;;;;-146.18;100.00;67994.34;9984472;29;20059;-67
2021/04/27 18:28:53;;;;;;;6.53;2.20;;;;;;;-146.18;100.00;67994.34;9974219;29;20044;-67
2021/04/27 18:33:50;;;;;;;5.40;2.00;;;;;;;-146.18;100.00;67994.34;9989737;29;20495;-67
2021/04/27 18:38:46;;;;;;;4.28;1.60;;;;;;;-146.18;100.00;67994.34;9977667;29;20056;-68
2021/04/27 18:43:42;;;;;;;3.83;1.17;;;;;;;-146.18;100.00;67994.34;9992147;29;20104;-66
2021/04/27 18:48:38;;;;;;;3.50;1.42;;;;;;;-146.18;100.00;67994.34;9984096;29;20044;-66
2021/04/27 18:53:34;;;;;;;4.63;1.30;;;;;;;-146.18;100.00;67994.34;9986805;29;20059;-66
2021/04/27 18:58:30;;;;;;;4.18;1.35;;;;;;;-146.18;100.00;67994.34;9985425;29;20415;-67
2021/04/27 19:03:26;;;;;;;5.53;1.40;;;;;;;-146.18;100.00;67994.34;9999171;29;20112;-67
2021/04/27 19:08:22;;;;;;;5.22;1.73;;;;;;;-146.18;100.00;67994.34;10002238;29;20043;-67
2021/04/27 19:13:18;;;;;;;6.28;2.70;;;;;;;-146.18;100.00;67994.34;9997599;29;20052;-67
2021/04/27 19:18:15;;;;;;;4.82;1.60;;;;;;;-146.18;100.00;67994.34;9997457;29;20056;-68
2021/04/27 19:23:11;;;;;;;5.07;1.40;;;;;;;-146.18;100.00;67994.34;10002521;29;20128;-67
2021/04/27 19:28:07;;;;;;;4.05;1.30;;;;;;;-146.18;100.00;67994.34;9990850;29;20081;-67
2021/04/27 19:33:04;;;;;;;4.70;1.40;;;;;;;-146.18;100.00;67994.34;9994898;29;20071;-67
2021/04/27 19:38:00;;;;;;;6.75;1.60;;;;;;;-146.18;100.00;67994.34;10003367;29;20100;-67
2021/04/27 19:42:56;;;;;;;5.88;1.60;;;;;;;-146.18;100.00;67994.34;9999448;29;20056;-66
2021/04/27 19:47:52;;;;;;;6.40;1.85;;;;;;;-146.18;100.00;67994.34;10013700;29;20095;-68
2021/04/27 19:52:49;;;;;;;5.60;1.90;;;;;;;-146.18;100.00;67994.34;10000517;29;20048;-66
2021/04/27 19:57:45;;;;;;;7.55;1.98;;;;;;;-146.18;100.00;67994.34;9997661;29;20224;-68
2021/04/27 20:02:42;;;;;;;5.75;2.22;;;;;;;-146.18;100.00;67994.34;9992666;29;20112;-67
2021/04/27 20:07:38;;;;;;;5.00;2.10;;;;;;;-146.18;100.00;67994.34;9995738;29;20080;-67
2021/04/27 20:12:34;;;;;;;6.68;1.65;;;;;;;-146.18;100.00;67994.34;9986891;29;20064;-67
2021/04/27 20:17:31;;;;;;;4.45;1.67;;;;;;;-146.18;100.00;67994.34;9996831;29;20044;-65
2021/04/27 20:22:27;;;;;;;5.85;2.38;;;;;;;-146.18;100.00;67994.34;9995189;29;20075;-67
2021/04/27 20:27:23;;;;;;;8.80;2.13;;;;;;;-146.18;100.00;67994.34;9991910;29;20076;-66
2021/04/27 20:32:19;;;;;;;6.38;2.13;;;;;;;-146.18;100.00;67994.34;9985552;29;20083;-65
2021/04/27 20:37:16;;;;;;;6.15;1.70;;;;;;;-146.18;100.00;67994.34;9991233;29;20051;-67
2021/04/27 20:42:12;;;;;;;5.18;1.90;;;;;;;-146.18;100.00;67994.34;10006865;29;20507;-69
2021/04/27 20:47:08;;;;;;;8.68;2.35;;;;;;;-146.18;100.00;67994.34;9996631;29;20443;-69
2021/04/27 20:52:05;;;;;;;5.57;1.88;;;;;;;-146.18;100.00;67994.34;10006222;29;20048;-68
2021/04/27 20:57:02;;;;;;;6.95;2.08;;;;;;;-146.18;100.00;67994.34;9993885;29;20055;-67
2021/04/27 21:02:01;;;;;;;7.00;2.10;;;;;;;-146.18;100.00;67994.34;9982056;29;20445;-67
2021/04/27 21:06:58;;;;;;;7.03;1.63;;;;;;;-146.18;100.00;67994.34;9979568;29;20434;-69
2021/04/27 21:11:55;;;;;;;8.82;2.10;;;;;;;-146.18;100.00;67994.34;9992549;29;20631;-69
2021/04/27 21:16:51;;;;;;;4.72;1.85;;;;;;;-146.18;100.00;67994.34;9986491;29;20100;-69
2021/04/27 21:21:47;;;;;;;5.72;1.85;;;;;;;-146.18;100.00;67994.34;9987259;29;20048;-69
2021/04/27 21:26:43;;;;;;;7.45;1.50;;;;;;;-146.18;100.00;67994.34;10001721;29;20048;-69
2021/04/27 21:31:39;;;;;;;5.57;1.92;;;;;;;-146.18;100.00;67994.34;10007588;29;20506;-68
2021/04/27 21:36:35;;;;;;;4.78;2.10;;;;;;;-146.18;100.00;67994.34;10009798;29;20103;-68
2021/04/27 21:41:32;;;;;;;8.35;1.77;;;;;;;-146.18;100.00;67994.34;10002436;29;20462;-68
2021/04/27 21:46:28;;;;;;;7.18;2.03;;;;;;;-146.18;100.00;67994.34;10008914;29;20051;-69
2021/04/27 21:51:24;;;;;;;7.57;2.00;;;;;;;-146.18;100.00;67994.34;10000522;29;20044;-69
2021/04/27 21:56:20;;;;;;;3.40;1.60;;;;;;;-146.18;100.00;67994.34;10001156;29;20044;-68
2021/04/27 22:01:16;;;;;;;3.55;1.48;;;;;;;-146.18;100.00;67994.34;10005472;29;20558;-69
2021/04/27 22:06:12;;;;;;;5.85;2.13;;;;;;;-146.18;100.00;67994.34;9985669;29;20048;-69
2021/04/27 22:11:08;;;;;;;4.82;1.88;;;;;;;-146.18;100.00;67994.34;9999147;29;20059;-69
2021/04/27 22:16:05;;;;;;;10.27;2.05;;;;;;;-146.18;100.00;67994.34;9996023;29;20054;-69
2021/04/27 22:21:01;;;;;;;4.20;1.83;;;;;;;-146.18;100.00;67994.34;10005229;29;20060;-69
2021/04/27 22:25:57;;;;;;;5.97;2.20;;;;;;;-146.18;100.00;67994.34;10000535;29;20052;-69